createdAt,value
2022-10-29T00:01:14.172Z,98924.13
2022-10-29T00:03:44.151Z,98918.88
2022-10-29T00:06:13.467Z,98905.72
2022-10-29T00:08:42.597Z,98908.72
2022-10-29T00:11:13.580Z,98908.91
2022-10-29T00:13:42.899Z,98906.25
2022-10-29T00:16:13.360Z,98906.44
2022-10-29T00:18:42.204Z,98906.59
2022-10-29T00:21:13.695Z,98907.25
2022-10-29T00:23:42.196Z,98910.91
2022-10-29T00:26:12.171Z,98904.91
2022-10-29T00:28:40.606Z,98909.78
2022-10-29T00:31:10.980Z,98913.13
2022-10-29T00:33:39.251Z,98909.69
2022-10-29T00:36:10.497Z,98909.75
2022-10-29T00:38:38.894Z,98905.09
2022-10-29T00:41:08.799Z,98900.13
2022-10-29T00:43:39.722Z,98900.09
2022-10-29T00:46:10.136Z,98890.78
2022-10-29T00:48:41.045Z,98888.72
2022-10-29T00:51:10.828Z,98899.28
2022-10-29T00:53:41.683Z,98896.19
2022-10-29T00:56:09.817Z,98904.16
2022-10-29T00:58:39.355Z,98895.28
2022-10-29T01:01:07.937Z,98893.22
2022-10-29T01:03:36.041Z,98889.31
2022-10-29T01:06:05.025Z,98882.81
2022-10-29T01:08:33.441Z,98872.72
2022-10-29T01:11:05.988Z,98866.28
2022-10-29T01:13:51.651Z,98862.28
2022-10-29T01:16:28.474Z,98868.94
2022-10-29T01:19:05.290Z,98880.72
2022-10-29T01:21:43.812Z,98881.53
2022-10-29T01:24:47.481Z,98877.88
2022-10-29T01:27:41.141Z,98881.91
2022-10-29T01:30:17.136Z,98885.53
2022-10-29T01:32:55.713Z,98874.31
2022-10-29T01:35:32.908Z,98873.22
2022-10-29T01:38:09.253Z,98859.78
2022-10-29T01:40:41.404Z,98864.63
2022-10-29T01:43:13.228Z,98860.75
2022-10-29T01:45:44.600Z,98863.84
2022-10-29T01:48:15.574Z,98862.75
2022-10-29T01:50:45.338Z,98857.91
2022-10-29T01:53:13.956Z,98869.50
2022-10-29T01:55:42.250Z,98878.25
2022-10-29T01:58:10.848Z,98874.00
2022-10-29T02:00:50.550Z,98881.81
2022-10-29T02:03:29.622Z,98862.16
2022-10-29T02:06:02.764Z,98864.03
2022-10-29T02:08:37.004Z,98851.19
2022-10-29T02:11:09.835Z,98854.72
2022-10-29T02:13:42.986Z,98854.41
2022-10-29T02:16:11.941Z,98855.28
2022-10-29T02:18:46.468Z,98848.44
2022-10-29T02:21:16.632Z,98850.41
2022-10-29T02:23:45.258Z,98846.72
2022-10-29T02:26:13.692Z,98836.41
2022-10-29T02:28:41.766Z,98837.44
2022-10-29T02:31:10.395Z,98829.28
2022-10-29T02:33:38.518Z,98830.97
2022-10-29T02:36:09.642Z,98842.50
2022-10-29T02:38:37.935Z,98837.84
2022-10-29T02:41:06.336Z,98842.06
2022-10-29T02:43:34.375Z,98844.97
2022-10-29T02:46:13.344Z,98846.81
2022-10-29T02:48:41.519Z,98839.91
2022-10-29T02:51:11.835Z,98842.16
2022-10-29T02:53:39.898Z,98861.72
2022-10-29T02:56:09.332Z,98857.22
2022-10-29T02:58:37.703Z,98846.47
2022-10-29T03:01:06.991Z,98844.84
2022-10-29T03:03:35.434Z,98841.28
2022-10-29T03:06:03.511Z,98837.88
2022-10-29T03:08:33.095Z,98838.47
2022-10-29T03:11:01.494Z,98823.94
2022-10-29T03:13:29.727Z,98815.91
2022-10-29T03:15:57.861Z,98830.06
2022-10-29T03:18:26.071Z,98827.81
2022-10-29T03:20:54.218Z,98846.66
2022-10-29T03:23:22.926Z,98847.78
2022-10-29T03:25:55.816Z,98837.63
2022-10-29T03:28:26.054Z,98834.09
2022-10-29T03:30:54.584Z,98845.25
2022-10-29T03:33:22.726Z,98854.66
2022-10-29T03:35:51.010Z,98852.28
2022-10-29T03:38:19.340Z,98853.69
2022-10-29T03:40:47.389Z,98859.84
2022-10-29T03:43:16.799Z,98857.31
2022-10-29T03:45:45.167Z,98847.75
2022-10-29T03:48:13.227Z,98862.75
2022-10-29T03:50:41.512Z,98855.91
2022-10-29T03:53:09.827Z,98858.19
2022-10-29T03:55:38.171Z,98857.84
2022-10-29T03:58:06.483Z,98858.13
2022-10-29T04:00:35.977Z,98842.09
2022-10-29T04:03:04.405Z,98851.91
2022-10-29T04:05:32.571Z,98851.06
2022-10-29T04:08:00.828Z,98848.72
2022-10-29T04:10:29.045Z,98841.84
2022-10-29T04:12:57.762Z,98850.97
2022-10-29T04:15:26.135Z,98844.22
2022-10-29T04:17:55.683Z,98845.16
2022-10-29T04:21:21.271Z,98850.06
2022-10-29T04:24:32.484Z,98839.13
2022-10-29T04:28:49.805Z,98843.09
2022-10-29T04:31:18.806Z,98842.38
2022-10-29T04:33:48.283Z,98850.66
2022-10-29T04:36:16.544Z,98841.09
2022-10-29T04:38:44.766Z,98844.81
2022-10-29T04:41:12.890Z,98826.34
2022-10-29T04:43:41.196Z,98806.72
2022-10-29T04:46:13.133Z,98793.25
2022-10-29T04:48:41.291Z,98821.63
2022-10-29T04:51:20.500Z,98796.00
2022-10-29T04:53:48.775Z,98820.28
2022-10-29T04:56:17.064Z,98816.00
2022-10-29T04:58:45.195Z,98810.44
2022-10-29T05:01:13.656Z,98805.63
2022-10-29T05:03:41.956Z,98829.66
2022-10-29T05:06:10.283Z,98822.00
2022-10-29T05:08:39.977Z,98823.97
2022-10-29T05:11:08.574Z,98834.28
2022-10-29T05:13:36.837Z,98837.38
2022-10-29T05:16:05.533Z,98852.59
2022-10-29T05:18:33.901Z,98830.16
2022-10-29T05:21:02.245Z,98841.53
2022-10-29T05:23:30.306Z,98843.03
2022-10-29T05:25:59.978Z,98847.16
2022-10-29T05:28:28.108Z,98847.94
2022-10-29T05:30:56.644Z,98845.16
2022-10-29T05:33:25.765Z,98835.50
2022-10-29T05:35:54.132Z,98832.81
2022-10-29T05:38:22.395Z,98832.50
2022-10-29T05:40:50.837Z,98844.00
2022-10-29T05:43:20.548Z,98834.09
2022-10-29T05:45:48.791Z,98831.19
2022-10-29T05:48:17.230Z,98830.88
2022-10-29T05:50:45.752Z,98833.34
2022-10-29T05:53:15.390Z,98839.72
2022-10-29T05:55:43.903Z,98843.75
2022-10-29T05:58:13.695Z,98836.75
2022-10-29T06:00:44.760Z,98836.19
2022-10-29T06:03:14.858Z,98834.06
2022-10-29T06:05:43.501Z,98844.81
2022-10-29T06:08:11.662Z,98846.25
2022-10-29T06:10:40.403Z,98849.06
2022-10-29T06:13:13.020Z,98861.91
2022-10-29T06:15:41.409Z,98854.28
2022-10-29T06:18:11.191Z,98868.66
2022-10-29T06:20:40.121Z,98869.44
2022-10-29T06:23:08.486Z,98863.66
2022-10-29T06:25:37.155Z,98871.44
2022-10-29T06:28:06.657Z,98876.13
2022-10-29T06:30:36.632Z,98886.34
2022-10-29T06:33:05.825Z,98885.00
2022-10-29T06:38:10.883Z,98879.03
2022-10-29T06:40:40.935Z,98885.44
2022-10-29T06:43:11.984Z,98885.16
2022-10-29T06:45:40.826Z,98889.03
2022-10-29T06:48:08.992Z,98886.06
2022-10-29T06:50:38.886Z,98881.00
2022-10-29T06:53:08.881Z,98878.34
2022-10-29T06:55:37.343Z,98878.81
2022-10-29T06:58:07.004Z,98887.97
2022-10-29T07:00:35.917Z,98894.84
2022-10-29T07:03:05.098Z,98900.78
2022-10-29T07:05:34.076Z,98894.03
2022-10-29T07:08:03.812Z,98901.94
2022-10-29T07:10:33.782Z,98913.44
2022-10-29T07:13:02.487Z,98917.16
2022-10-29T07:15:32.440Z,98924.34
2022-10-29T07:18:02.298Z,98920.00
2022-10-29T07:20:32.025Z,98925.31
2022-10-29T07:23:01.347Z,98923.50
2022-10-29T07:25:31.967Z,98934.81
2022-10-29T07:28:04.468Z,98942.16
2022-10-29T07:30:33.806Z,98933.66
2022-10-29T07:33:02.023Z,98925.94
2022-10-29T07:35:30.484Z,98920.09
2022-10-29T07:38:05.372Z,98932.97
2022-10-29T07:40:39.036Z,98928.44
2022-10-29T07:43:07.200Z,98932.06
2022-10-29T07:45:35.589Z,98912.72
2022-10-29T07:48:07.305Z,98930.06
2022-10-29T07:50:36.239Z,98930.22
2022-10-29T07:53:05.109Z,98938.66
2022-10-29T07:55:33.540Z,98943.81
2022-10-29T07:58:06.064Z,98944.00
2022-10-29T08:00:36.078Z,98938.41
2022-10-29T08:03:04.508Z,98933.03
2022-10-29T08:05:33.153Z,98947.63
2022-10-29T08:08:01.439Z,98946.81
2022-10-29T08:10:31.315Z,98937.25
2022-10-29T08:13:01.281Z,98944.81
2022-10-29T08:15:32.841Z,98942.41
2022-10-29T08:18:00.949Z,98938.25
2022-10-29T08:20:29.857Z,98940.78
2022-10-29T08:23:00.832Z,98946.50
2022-10-29T08:25:29.246Z,98942.25
2022-10-29T08:28:01.392Z,98951.56
2022-10-29T08:30:31.697Z,98953.13
2022-10-29T08:33:00.857Z,98944.75
2022-10-29T08:35:29.447Z,98946.53
2022-10-29T08:37:58.348Z,98951.25
2022-10-29T08:40:31.567Z,98955.31
2022-10-29T08:43:30.901Z,98951.13
2022-10-29T08:46:00.376Z,98953.72
2022-10-29T08:48:40.777Z,98942.06
2022-10-29T08:51:13.498Z,98941.16
2022-10-29T08:53:45.513Z,98939.16
2022-10-29T08:56:21.060Z,98941.34
2022-10-29T08:58:55.741Z,98939.13
2022-10-29T09:01:25.689Z,98940.25
2022-10-29T09:03:54.374Z,98934.50
2022-10-29T09:06:28.256Z,98929.56
2022-10-29T09:09:06.710Z,98937.53
2022-10-29T09:11:44.832Z,98941.03
2022-10-29T09:14:28.525Z,98936.69
2022-10-29T09:17:02.853Z,98932.22
2022-10-29T09:19:46.765Z,98941.66
2022-10-29T09:22:19.170Z,98939.16
2022-10-29T09:24:53.753Z,98931.22
2022-10-29T09:27:25.450Z,98935.25
2022-10-29T09:30:10.250Z,98946.16
2022-10-29T09:32:42.427Z,98944.25
2022-10-29T09:35:14.975Z,98932.06
2022-10-29T09:37:49.082Z,98926.38
2022-10-29T09:40:31.692Z,98935.66
2022-10-29T09:43:00.575Z,98928.13
2022-10-29T09:45:37.489Z,98934.13
2022-10-29T09:48:11.404Z,98935.13
2022-10-29T09:50:44.632Z,98920.06
2022-10-29T09:53:12.836Z,98918.31
2022-10-29T09:55:43.609Z,98916.09
2022-10-29T09:58:19.837Z,98906.63
2022-10-29T10:00:48.460Z,98905.44
2022-10-29T10:03:23.987Z,98903.38
2022-10-29T10:06:03.176Z,98898.44
2022-10-29T10:08:31.976Z,98911.03
2022-10-29T10:11:02.204Z,98916.84
2022-10-29T10:13:32.833Z,98897.03
2022-10-29T10:16:01.907Z,98901.47
2022-10-29T10:18:41.463Z,98893.38
2022-10-29T10:21:11.444Z,98896.44
2022-10-29T10:23:47.781Z,98894.06
2022-10-29T10:26:46.336Z,98895.28
2022-10-29T10:29:17.038Z,98893.00
2022-10-29T10:31:46.663Z,98884.28
2022-10-29T10:34:21.323Z,98882.75
2022-10-29T10:36:53.392Z,98885.06
2022-10-29T10:39:26.026Z,98875.75
2022-10-29T10:41:55.045Z,98881.47
2022-10-29T10:44:23.847Z,98874.88
2022-10-29T10:46:54.470Z,98870.63
2022-10-29T10:49:33.424Z,98865.69
2022-10-29T10:52:04.789Z,98866.16
2022-10-29T10:54:37.100Z,98867.19
2022-10-29T10:57:18.682Z,98867.47
2022-10-29T10:59:52.223Z,98860.88
2022-10-29T11:02:28.549Z,98860.97
2022-10-29T11:05:03.707Z,98867.47
2022-10-29T11:07:37.576Z,98869.31
2022-10-29T11:10:08.386Z,98851.09
2022-10-29T11:12:42.363Z,98857.56
2022-10-29T11:15:15.725Z,98851.69
2022-10-29T11:17:53.861Z,98849.47
2022-10-29T11:20:27.430Z,98848.56
2022-10-29T11:23:04.044Z,98852.41
2022-10-29T11:25:36.818Z,98843.25
2022-10-29T11:28:11.085Z,98838.56
2022-10-29T11:30:43.691Z,98849.28
2022-10-29T11:33:20.084Z,98846.81
2022-10-29T11:35:53.971Z,98851.09
2022-10-29T11:38:27.595Z,98850.25
2022-10-29T11:41:04.814Z,98852.66
2022-10-29T11:43:34.030Z,98847.47
2022-10-29T11:46:09.006Z,98857.28
2022-10-29T11:48:50.796Z,98842.88
2022-10-29T11:51:28.806Z,98845.19
2022-10-29T11:54:01.220Z,98842.53
2022-10-29T11:56:45.339Z,98841.84
2022-10-29T11:59:21.144Z,98845.81
2022-10-29T12:01:55.087Z,98842.41
2022-10-29T12:04:28.623Z,98840.69
2022-10-29T12:07:15.042Z,98834.03
2022-10-29T12:10:04.392Z,98834.28
2022-10-29T12:12:35.939Z,98831.25
2022-10-29T12:15:12.844Z,98828.56
2022-10-29T12:17:44.642Z,98826.28
2022-10-29T12:20:17.373Z,98818.91
2022-10-29T12:22:49.255Z,98817.63
2022-10-29T12:25:31.136Z,98811.75
2022-10-29T12:28:08.138Z,98814.28
2022-10-29T12:30:40.839Z,98816.63
2022-10-29T12:33:15.802Z,98814.59
2022-10-29T12:35:49.454Z,98815.88
2022-10-29T12:38:31.026Z,98814.25
2022-10-29T12:41:02.782Z,98808.78
2022-10-29T12:43:31.972Z,98808.13
2022-10-29T12:46:19.649Z,98804.84
2022-10-29T12:48:55.749Z,98803.66
2022-10-29T12:51:28.771Z,98819.66
2022-10-29T12:54:17.184Z,98818.91
2022-10-29T12:56:49.395Z,98822.59
2022-10-29T12:59:30.231Z,98814.22
2022-10-29T13:02:44.749Z,98806.38
2022-10-29T13:05:21.355Z,98815.13
2022-10-29T13:08:32.483Z,98811.09
2022-10-29T13:11:02.009Z,98801.78
2022-10-29T13:13:53.627Z,98803.81
2022-10-29T13:16:22.223Z,98801.72
2022-10-29T13:19:16.104Z,98805.81
2022-10-29T13:22:01.107Z,98793.47
2022-10-29T13:24:30.580Z,98797.09
2022-10-29T13:27:06.418Z,98797.03
2022-10-29T13:29:48.264Z,98801.19
2022-10-29T13:32:33.639Z,98809.72
2022-10-29T13:35:03.167Z,98805.56
2022-10-29T13:37:53.403Z,98797.31
2022-10-29T13:41:01.613Z,98803.97
2022-10-29T13:43:32.243Z,98793.03
2022-10-29T13:46:39.106Z,98796.59
2022-10-29T13:49:13.826Z,98783.94
2022-10-29T13:51:44.581Z,98779.50
2022-10-29T13:54:18.269Z,98776.28
2022-10-29T13:56:50.137Z,98775.50
2022-10-29T13:59:26.613Z,98773.31
2022-10-29T14:02:02.635Z,98773.97
2022-10-29T14:04:35.615Z,98773.72
2022-10-29T14:07:06.978Z,98778.22
2022-10-29T14:09:39.271Z,98768.75
2022-10-29T14:12:09.469Z,98766.34
2022-10-29T14:14:46.531Z,98770.66
2022-10-29T14:17:16.229Z,98770.66
2022-10-29T14:19:46.394Z,98779.06
2022-10-29T14:22:31.632Z,98782.59
2022-10-29T14:25:00.485Z,98793.28
2022-10-29T14:27:28.691Z,98789.97
2022-10-29T14:30:19.274Z,98787.78
2022-10-29T14:32:47.549Z,98786.06
2022-10-29T14:35:17.867Z,98790.00
2022-10-29T14:37:48.088Z,98791.22
2022-10-29T14:40:19.960Z,98789.97
2022-10-29T14:42:51.514Z,98789.53
2022-10-29T14:45:24.524Z,98782.81
2022-10-29T14:47:54.181Z,98784.50
2022-10-29T14:50:24.321Z,98794.09
2022-10-29T14:52:55.144Z,98795.09
2022-10-29T14:55:25.172Z,98795.25
2022-10-29T14:58:04.506Z,98786.78
2022-10-29T15:00:37.192Z,98793.16
2022-10-29T15:03:07.506Z,98794.56
2022-10-29T15:05:37.785Z,98802.00
2022-10-29T15:08:08.296Z,98798.19
2022-10-29T15:10:46.946Z,98788.28
2022-10-29T15:13:22.548Z,98798.06
2022-10-29T15:15:58.490Z,98797.56
2022-10-29T15:18:27.172Z,98791.34
2022-10-29T15:20:56.397Z,98801.63
2022-10-29T15:23:27.610Z,98791.19
2022-10-29T15:25:59.966Z,98794.44
2022-10-29T15:28:30.427Z,98784.91
2022-10-29T15:31:02.873Z,98780.75
2022-10-29T15:33:32.057Z,98790.38
2022-10-29T15:36:01.398Z,98791.75
2022-10-29T15:39:09.503Z,98795.38
2022-10-29T15:41:39.845Z,98794.72
2022-10-29T15:44:38.709Z,98791.97
2022-10-29T15:47:29.495Z,98796.91
2022-10-29T15:49:58.330Z,98796.88
2022-10-29T15:52:29.626Z,98794.38
2022-10-29T15:54:58.101Z,98791.25
2022-10-29T15:57:26.466Z,98781.13
2022-10-29T15:59:57.522Z,98785.06
2022-10-29T16:02:26.842Z,98781.56
2022-10-29T16:04:56.792Z,98772.53
2022-10-29T16:07:24.937Z,98774.00
2022-10-29T16:09:55.534Z,98782.41
2022-10-29T16:12:23.719Z,98787.16
2022-10-29T16:14:52.086Z,98790.47
2022-10-29T16:17:22.017Z,98787.50
2022-10-29T16:19:50.204Z,98793.41
2022-10-29T16:22:25.808Z,98798.56
2022-10-29T16:24:54.036Z,98802.41
2022-10-29T16:27:22.548Z,98792.13
2022-10-29T16:29:51.847Z,98792.16
2022-10-29T16:32:23.021Z,98793.50
2022-10-29T16:34:52.321Z,98795.94
2022-10-29T16:37:22.562Z,98796.69
2022-10-29T16:39:50.829Z,98795.16
2022-10-29T16:42:30.262Z,98798.03
2022-10-29T16:44:58.712Z,98799.69
2022-10-29T16:47:27.517Z,98807.38
2022-10-29T16:49:55.810Z,98797.25
2022-10-29T16:52:29.475Z,98799.31
2022-10-29T16:54:58.588Z,98794.31
2022-10-29T16:57:26.825Z,98795.63
2022-10-29T16:59:55.063Z,98805.09
2022-10-29T17:02:23.619Z,98805.56
2022-10-29T17:04:51.813Z,98801.50
2022-10-29T17:07:20.327Z,98798.72
2022-10-29T17:09:49.926Z,98796.84
2022-10-29T17:12:18.109Z,98795.47
2022-10-29T17:14:46.520Z,98799.88
2022-10-29T17:17:14.586Z,98789.94
2022-10-29T17:19:43.114Z,98787.50
2022-10-29T17:22:15.847Z,98790.13
2022-10-29T17:24:44.541Z,98792.03
2022-10-29T17:27:14.709Z,98793.13
2022-10-29T17:29:43.015Z,98794.19
2022-10-29T17:32:11.225Z,98786.38
2022-10-29T17:34:39.597Z,98793.75
2022-10-29T17:37:08.107Z,98792.09
2022-10-29T17:39:36.588Z,98783.94
2022-10-29T17:42:05.181Z,98789.97
2022-10-29T17:44:37.854Z,98792.25
2022-10-29T17:47:06.247Z,98800.25
2022-10-29T17:49:35.028Z,98800.44
2022-10-29T17:52:03.333Z,98796.19
2022-10-29T17:54:33.911Z,98793.41
2022-10-29T17:57:03.397Z,98794.41
2022-10-29T17:59:31.728Z,98791.75
2022-10-29T18:02:01.502Z,98802.03
2022-10-29T18:04:30.122Z,98805.13
2022-10-29T18:06:58.427Z,98803.19
2022-10-29T18:09:26.799Z,98805.47
2022-10-29T18:11:56.355Z,98808.56
2022-10-29T18:14:24.671Z,98813.63
2022-10-29T18:16:53.034Z,98806.91
2022-10-29T18:19:24.005Z,98803.84
2022-10-29T18:21:52.491Z,98792.34
2022-10-29T18:24:22.427Z,98800.38
2022-10-29T18:26:51.390Z,98798.28
2022-10-29T18:29:19.495Z,98799.19
2022-10-29T18:31:47.844Z,98795.75
2022-10-29T18:34:17.131Z,98801.16
2022-10-29T18:36:47.596Z,98804.16
2022-10-29T18:39:16.092Z,98800.81
2022-10-29T18:41:46.822Z,98806.44
2022-10-29T18:44:15.145Z,98803.91
2022-10-29T18:46:43.711Z,98798.47
2022-10-29T18:49:13.185Z,98798.34
2022-10-29T18:51:42.011Z,98804.88
2022-10-29T18:54:13.079Z,98793.38
2022-10-29T18:56:41.584Z,98789.50
2022-10-29T18:59:12.847Z,98782.78
2022-10-29T19:01:41.235Z,98780.03
2022-10-29T19:04:12.673Z,98780.59
2022-10-29T19:06:40.922Z,98781.66
2022-10-29T19:09:11.943Z,98774.91
2022-10-29T19:11:41.365Z,98774.19
2022-10-29T19:14:13.660Z,98769.88
2022-10-29T19:16:42.361Z,98783.59
2022-10-29T19:19:13.989Z,98783.84
2022-10-29T19:21:43.435Z,98777.50
2022-10-29T19:24:15.977Z,98780.41
2022-10-29T19:26:44.299Z,98778.22
2022-10-29T19:29:12.978Z,98776.59
2022-10-29T19:31:42.584Z,98772.34
2022-10-29T19:34:10.908Z,98776.91
2022-10-29T19:36:40.304Z,98779.38
2022-10-29T19:39:08.902Z,98773.53
2022-10-29T19:41:38.667Z,98777.03
2022-10-29T19:44:07.023Z,98775.97
2022-10-29T19:46:36.238Z,98785.44
2022-10-29T19:49:04.392Z,98796.50
2022-10-29T19:51:32.715Z,98796.41
2022-10-29T19:54:02.450Z,98800.78
2022-10-29T19:56:31.214Z,98795.59
2022-10-29T19:59:00.763Z,98787.84
2022-10-29T20:01:29.279Z,98797.72
2022-10-29T20:03:58.563Z,98787.31
2022-10-29T20:06:27.008Z,98786.13
2022-10-29T20:08:55.245Z,98789.47
2022-10-29T20:11:23.634Z,98786.06
2022-10-29T20:13:52.069Z,98784.19
2022-10-29T20:16:22.653Z,98787.19
2022-10-29T20:18:51.601Z,98784.84
2022-10-29T20:21:20.332Z,98796.16
2022-10-29T20:23:48.561Z,98806.53
2022-10-29T20:26:16.890Z,98798.78
2022-10-29T20:28:45.226Z,98801.19
2022-10-29T20:31:23.696Z,98802.72
2022-10-29T20:33:54.825Z,98803.34
2022-10-29T20:36:24.644Z,98791.75
2022-10-29T20:38:53.907Z,98798.63
2022-10-29T20:41:22.931Z,98795.03
2022-10-29T20:43:55.817Z,98798.63
2022-10-29T20:46:24.518Z,98801.72
2022-10-29T20:48:54.470Z,98799.59
2022-10-29T20:51:23.261Z,98806.59
2022-10-29T20:53:51.680Z,98789.16
2022-10-29T20:56:20.003Z,98804.16
2022-10-29T20:58:48.619Z,98797.31
2022-10-29T21:01:18.083Z,98799.78
2022-10-29T21:03:46.590Z,98789.81
2022-10-29T21:06:17.563Z,98789.66
2022-10-29T21:08:45.993Z,98779.88
2022-10-29T21:11:15.872Z,98788.69
2022-10-29T21:13:44.037Z,98793.72
2022-10-29T21:16:18.087Z,98781.34
2022-10-29T21:18:47.719Z,98778.25
2022-10-29T21:21:17.772Z,98778.41
2022-10-29T21:23:46.189Z,98770.25
2022-10-29T21:26:16.032Z,98779.84
2022-10-29T21:28:44.580Z,98775.78
2022-10-29T21:31:13.017Z,98767.63
2022-10-29T21:33:41.416Z,98773.50
2022-10-29T21:36:11.085Z,98772.53
2022-10-29T21:38:40.732Z,98771.72
2022-10-29T21:41:09.121Z,98763.06
2022-10-29T21:43:38.153Z,98754.75
2022-10-29T21:46:06.427Z,98747.09
2022-10-29T21:48:35.021Z,98734.22
2022-10-29T21:51:05.672Z,98722.16
2022-10-29T21:53:34.017Z,98718.88
2022-10-29T21:56:05.548Z,98728.50
2022-10-29T21:58:34.285Z,98729.16
2022-10-29T22:01:04.135Z,98731.59
2022-10-29T22:03:33.916Z,98734.38
2022-10-29T22:06:03.925Z,98736.66
2022-10-29T22:08:32.202Z,98729.94
2022-10-29T22:11:00.613Z,98745.91
2022-10-29T22:13:31.477Z,98741.88
2022-10-29T22:16:00.006Z,98741.16
2022-10-29T22:18:28.808Z,98738.56
2022-10-29T22:21:04.825Z,98736.16
2022-10-29T22:23:33.106Z,98732.31
2022-10-29T22:26:01.832Z,98734.47
2022-10-29T22:28:31.337Z,98736.75
2022-10-29T22:31:01.416Z,98728.78
2022-10-29T22:33:30.261Z,98730.38
2022-10-29T22:36:05.756Z,98725.09
2022-10-29T22:38:34.117Z,98721.56
2022-10-29T22:41:05.917Z,98724.28
2022-10-29T22:43:36.328Z,98721.94
2022-10-29T22:46:05.659Z,98712.16
2022-10-29T22:48:34.193Z,98716.41
2022-10-29T22:51:03.930Z,98714.78
2022-10-29T22:53:32.228Z,98724.50
2022-10-29T22:56:00.916Z,98723.41
2022-10-29T22:58:29.214Z,98722.06
2022-10-29T23:01:07.119Z,98711.38
2022-10-29T23:03:36.234Z,98716.19
2022-10-29T23:06:06.046Z,98709.84
2022-10-29T23:08:34.286Z,98725.09
2022-10-29T23:11:05.832Z,98726.78
2022-10-29T23:13:34.321Z,98719.19
2022-10-29T23:16:02.732Z,98720.47
2022-10-29T23:18:32.299Z,98723.94
2022-10-29T23:21:01.411Z,98717.53
2022-10-29T23:23:29.815Z,98708.06
2022-10-29T23:26:01.640Z,98714.09
2022-10-29T23:28:30.295Z,98712.59
2022-10-29T23:30:59.700Z,98710.84
2022-10-29T23:33:28.211Z,98701.81
2022-10-29T23:35:57.677Z,98700.78
2022-10-29T23:38:26.037Z,98688.59
2022-10-29T23:40:54.335Z,98684.38
2022-10-29T23:43:22.496Z,98676.66
2022-10-29T23:45:50.755Z,98678.66
2022-10-29T23:48:19.279Z,98681.13
2022-10-29T23:50:48.000Z,98677.75
2022-10-29T23:53:17.861Z,98686.28
2022-10-29T23:55:46.930Z,98691.38
2022-10-29T23:58:15.554Z,98689.41
